sensor_id;sensor_type;location;lat;lon;timestamp;pressure;altitude;pressure_sealevel;temperature;humidity
52032;BME280;38044;45.148;39.604;2023-01-25T00:02:16;102427.06;;;-3.51;78.60
52032;BME280;38044;45.148;39.604;2023-01-25T00:04:42;102348.47;;;-3.98;78.63
52032;BME280;38044;45.148;39.604;2023-01-25T00:07:08;102347.50;;;-3.97;78.68
52032;BME280;38044;45.148;39.604;2023-01-25T00:09:34;102417.00;;;-3.55;78.33
52032;BME280;38044;45.148;39.604;2023-01-25T00:12:00;102373.25;;;-3.82;78.33
52032;BME280;38044;45.148;39.604;2023-01-25T00:14:26;102361.59;;;-3.98;78.26
52032;BME280;38044;45.148;39.604;2023-01-25T00:16:51;102403.34;;;-3.77;78.58
52032;BME280;38044;45.148;39.604;2023-01-25T00:19:17;102297.47;;;-4.31;78.57
52032;BME280;38044;45.148;39.604;2023-01-25T00:21:43;102386.81;;;-3.87;78.42
52032;BME280;38044;45.148;39.604;2023-01-25T00:24:09;102367.63;;;-3.88;78.73
52032;BME280;38044;45.148;39.604;2023-01-25T00:26:36;102361.91;;;-4.01;78.75
52032;BME280;38044;45.148;39.604;2023-01-25T00:29:03;102288.97;;;-4.43;78.65
52032;BME280;38044;45.148;39.604;2023-01-25T00:36:40;102251.75;;;-4.56;78.96
52032;BME280;38044;45.148;39.604;2023-01-25T00:39:11;102252.38;;;-4.62;78.79
52032;BME280;38044;45.148;39.604;2023-01-25T00:41:37;102376.47;;;-3.89;78.68
52032;BME280;38044;45.148;39.604;2023-01-25T00:44:04;102383.97;;;-3.94;78.74
52032;BME280;38044;45.148;39.604;2023-01-25T00:46:29;102340.28;;;-4.13;78.86
52032;BME280;38044;45.148;39.604;2023-01-25T00:48:55;102371.84;;;-3.95;78.79
52032;BME280;38044;45.148;39.604;2023-01-25T00:51:22;102239.25;;;-4.80;78.69
52032;BME280;38044;45.148;39.604;2023-01-25T00:53:48;102245.31;;;-4.80;78.67
52032;BME280;38044;45.148;39.604;2023-01-25T00:56:15;102386.22;;;-3.99;78.74
52032;BME280;38044;45.148;39.604;2023-01-25T00:58:41;102379.63;;;-4.03;78.89
52032;BME280;38044;45.148;39.604;2023-01-25T01:01:07;102388.16;;;-4.01;78.74
52032;BME280;38044;45.148;39.604;2023-01-25T01:03:33;102365.66;;;-4.21;78.71
52032;BME280;38044;45.148;39.604;2023-01-25T01:06:05;102342.63;;;-4.27;78.88
52032;BME280;38044;45.148;39.604;2023-01-25T01:08:35;102274.31;;;-4.81;78.83
52032;BME280;38044;45.148;39.604;2023-01-25T01:11:05;102356.03;;;-4.31;79.12
52032;BME280;38044;45.148;39.604;2023-01-25T01:13:31;102403.25;;;-4.21;79.27
52032;BME280;38044;45.148;39.604;2023-01-25T01:15:59;102339.06;;;-4.54;79.55
52032;BME280;38044;45.148;39.604;2023-01-25T01:18:58;102166.69;;;-5.62;79.78
52032;BME280;38044;45.148;39.604;2023-01-25T01:21:24;102295.75;;;-4.86;79.92
52032;BME280;38044;45.148;39.604;2023-01-25T01:23:49;102268.03;;;-4.98;79.54
52032;BME280;38044;45.148;39.604;2023-01-25T01:26:17;102321.66;;;-4.55;79.48
52032;BME280;38044;45.148;39.604;2023-01-25T01:28:47;102345.38;;;-4.47;79.33
52032;BME280;38044;45.148;39.604;2023-01-25T01:31:18;102355.91;;;-4.29;79.77
52032;BME280;38044;45.148;39.604;2023-01-25T01:33:48;102349.44;;;-4.35;79.35
52032;BME280;38044;45.148;39.604;2023-01-25T01:36:15;102379.75;;;-4.22;79.13
52032;BME280;38044;45.148;39.604;2023-01-25T01:38:42;102358.66;;;-4.48;78.63
52032;BME280;38044;45.148;39.604;2023-01-25T01:41:08;102225.78;;;-5.40;78.75
52032;BME280;38044;45.148;39.604;2023-01-25T01:43:35;102363.59;;;-4.63;79.46
52032;BME280;38044;45.148;39.604;2023-01-25T01:48:47;102367.75;;;-4.70;79.60
52032;BME280;38044;45.148;39.604;2023-01-25T01:51:40;102391.97;;;-4.49;79.93
52032;BME280;38044;45.148;39.604;2023-01-25T01:54:11;102339.16;;;-4.73;79.84
52032;BME280;38044;45.148;39.604;2023-01-25T01:57:10;102318.72;;;-4.70;79.55
52032;BME280;38044;45.148;39.604;2023-01-25T01:59:45;102362.78;;;-4.46;79.50
52032;BME280;38044;45.148;39.604;2023-01-25T02:02:13;102330.28;;;-4.63;79.40
52032;BME280;38044;45.148;39.604;2023-01-25T02:04:41;102365.75;;;-4.59;79.04
52032;BME280;38044;45.148;39.604;2023-01-25T02:09:56;102324.59;;;-4.86;79.26
52032;BME280;38044;45.148;39.604;2023-01-25T02:12:23;102378.63;;;-4.65;79.07
52032;BME280;38044;45.148;39.604;2023-01-25T02:14:51;102291.81;;;-5.00;79.34
52032;BME280;38044;45.148;39.604;2023-01-25T02:17:23;102334.75;;;-4.73;79.34
52032;BME280;38044;45.148;39.604;2023-01-25T02:20:02;102374.16;;;-4.55;79.19
52032;BME280;38044;45.148;39.604;2023-01-25T02:23:02;102360.97;;;-4.63;79.24
52032;BME280;38044;45.148;39.604;2023-01-25T02:25:30;102295.69;;;-5.04;78.96
52032;BME280;38044;45.148;39.604;2023-01-25T02:28:10;102363.28;;;-4.60;79.03
52032;BME280;38044;45.148;39.604;2023-01-25T02:30:40;102332.38;;;-4.94;78.70
52032;BME280;38044;45.148;39.604;2023-01-25T02:33:06;102377.94;;;-4.67;78.74
52032;BME280;38044;45.148;39.604;2023-01-25T02:35:43;102377.94;;;-4.67;78.81
52032;BME280;38044;45.148;39.604;2023-01-25T02:38:14;102237.03;;;-5.68;78.80
52032;BME280;38044;45.148;39.604;2023-01-25T02:41:03;102377.06;;;-4.86;79.13
52032;BME280;38044;45.148;39.604;2023-01-25T02:43:33;102333.16;;;-5.21;79.23
52032;BME280;38044;45.148;39.604;2023-01-25T02:46:06;102342.34;;;-5.07;79.19
52032;BME280;38044;45.148;39.604;2023-01-25T02:48:35;102270.06;;;-5.47;79.10
52032;BME280;38044;45.148;39.604;2023-01-25T02:51:02;102342.34;;;-5.07;78.87
52032;BME280;38044;45.148;39.604;2023-01-25T02:53:30;102344.09;;;-4.98;78.63
52032;BME280;38044;45.148;39.604;2023-01-25T02:55:56;102346.72;;;-4.98;78.28
52032;BME280;38044;45.148;39.604;2023-01-25T02:58:22;102335.97;;;-4.95;78.36
52032;BME280;38044;45.148;39.604;2023-01-25T03:00:48;102363.50;;;-4.81;78.03
52032;BME280;38044;45.148;39.604;2023-01-25T03:03:13;102339.13;;;-4.91;77.39
52032;BME280;38044;45.148;39.604;2023-01-25T03:05:39;102310.88;;;-5.07;77.30
52032;BME280;38044;45.148;39.604;2023-01-25T03:08:05;102252.44;;;-5.55;77.12
52032;BME280;38044;45.148;39.604;2023-01-25T03:10:31;102358.31;;;-4.91;77.44
52032;BME280;38044;45.148;39.604;2023-01-25T03:12:56;102353.19;;;-4.92;77.75
52032;BME280;38044;45.148;39.604;2023-01-25T03:15:22;102246.28;;;-5.63;77.86
52032;BME280;38044;45.148;39.604;2023-01-25T03:17:48;102325.97;;;-5.09;78.39
52032;BME280;38044;45.148;39.604;2023-01-25T03:20:14;102369.34;;;-4.87;78.31
52032;BME280;38044;45.148;39.604;2023-01-25T03:22:40;102227.53;;;-5.69;78.61
52032;BME280;38044;45.148;39.604;2023-01-25T03:25:06;102332.50;;;-4.95;79.02
52032;BME280;38044;45.148;39.604;2023-01-25T03:27:32;102290.78;;;-5.16;78.88
52032;BME280;38044;45.148;39.604;2023-01-25T03:29:58;102367.06;;;-4.72;78.83
52032;BME280;38044;45.148;39.604;2023-01-25T03:32:24;102353.56;;;-4.78;78.90
52032;BME280;38044;45.148;39.604;2023-01-25T03:34:49;102350.69;;;-4.84;78.81
52032;BME280;38044;45.148;39.604;2023-01-25T03:37:15;102347.72;;;-4.99;78.63
52032;BME280;38044;45.148;39.604;2023-01-25T03:39:41;102345.97;;;-5.08;78.69
52032;BME280;38044;45.148;39.604;2023-01-25T03:42:07;102239.81;;;-5.79;78.60
52032;BME280;38044;45.148;39.604;2023-01-25T03:44:33;102381.81;;;-4.99;79.00
52032;BME280;38044;45.148;39.604;2023-01-25T03:46:59;102300.72;;;-5.57;78.99
52032;BME280;38044;45.148;39.604;2023-01-25T03:49:24;102333.91;;;-5.38;79.29
52032;BME280;38044;45.148;39.604;2023-01-25T03:51:52;102404.22;;;-5.14;79.27
52032;BME280;38044;45.148;39.604;2023-01-25T03:54:18;102392.94;;;-5.25;79.48
52032;BME280;38044;45.148;39.604;2023-01-25T03:56:44;102254.94;;;-6.20;79.73
52032;BME280;38044;45.148;39.604;2023-01-25T03:59:10;102341.13;;;-5.60;80.30
52032;BME280;38044;45.148;39.604;2023-01-25T04:01:37;102372.00;;;-5.34;80.62
52032;BME280;38044;45.148;39.604;2023-01-25T04:04:02;102267.84;;;-5.89;80.62
52032;BME280;38044;45.148;39.604;2023-01-25T04:06:28;102353.63;;;-5.44;80.35
52032;BME280;38044;45.148;39.604;2023-01-25T04:08:54;102192.97;;;-6.48;80.32
52032;BME280;38044;45.148;39.604;2023-01-25T04:11:20;102217.75;;;-6.33;80.44
52032;BME280;38044;45.148;39.604;2023-01-25T04:13:46;102265.00;;;-6.15;80.46
52032;BME280;38044;45.148;39.604;2023-01-25T04:16:12;102355.47;;;-5.64;80.76
52032;BME280;38044;45.148;39.604;2023-01-25T04:18:38;102357.13;;;-5.63;81.29
52032;BME280;38044;45.148;39.604;2023-01-25T04:21:05;102256.75;;;-6.20;81.69
52032;BME280;38044;45.148;39.604;2023-01-25T04:23:31;102304.50;;;-5.89;81.71
52032;BME280;38044;45.148;39.604;2023-01-25T04:25:58;102379.13;;;-5.27;81.80
52032;BME280;38044;45.148;39.604;2023-01-25T04:28:24;102382.16;;;-5.22;82.07
52032;BME280;38044;45.148;39.604;2023-01-25T04:30:51;102369.03;;;-5.22;81.82
52032;BME280;38044;45.148;39.604;2023-01-25T04:33:17;102377.72;;;-5.21;81.92
52032;BME280;38044;45.148;39.604;2023-01-25T04:35:44;102340.66;;;-5.36;81.87
52032;BME280;38044;45.148;39.604;2023-01-25T04:38:10;102355.69;;;-5.38;82.22
52032;BME280;38044;45.148;39.604;2023-01-25T04:40:37;102370.31;;;-5.26;82.51
52032;BME280;38044;45.148;39.604;2023-01-25T04:43:03;102360.22;;;-5.30;82.64
52032;BME280;38044;45.148;39.604;2023-01-25T04:45:31;102312.03;;;-5.57;82.94
52032;BME280;38044;45.148;39.604;2023-01-25T04:47:59;102389.84;;;-5.10;82.83
52032;BME280;38044;45.148;39.604;2023-01-25T04:50:26;102387.63;;;-5.05;83.21
52032;BME280;38044;45.148;39.604;2023-01-25T04:52:52;102345.72;;;-5.25;83.17
52032;BME280;38044;45.148;39.604;2023-01-25T04:55:18;102379.88;;;-4.97;83.49
52032;BME280;38044;45.148;39.604;2023-01-25T04:57:44;102367.72;;;-4.98;83.28
52032;BME280;38044;45.148;39.604;2023-01-25T05:00:10;102376.78;;;-4.83;83.36
52032;BME280;38044;45.148;39.604;2023-01-25T05:02:36;102359.97;;;-4.90;83.24
52032;BME280;38044;45.148;39.604;2023-01-25T05:05:04;102376.19;;;-4.77;83.34
52032;BME280;38044;45.148;39.604;2023-01-25T05:07:30;102320.59;;;-5.17;83.20
52032;BME280;38044;45.148;39.604;2023-01-25T05:09:56;102295.22;;;-5.27;83.35
52032;BME280;38044;45.148;39.604;2023-01-25T05:12:21;102366.97;;;-4.81;83.36
52032;BME280;38044;45.148;39.604;2023-01-25T05:14:47;102356.31;;;-4.79;83.59
52032;BME280;38044;45.148;39.604;2023-01-25T05:17:13;102373.78;;;-4.60;83.67
52032;BME280;38044;45.148;39.604;2023-01-25T05:19:39;102388.47;;;-4.49;83.71
52032;BME280;38044;45.148;39.604;2023-01-25T05:22:05;102287.28;;;-5.07;83.41
52032;BME280;38044;45.148;39.604;2023-01-25T05:24:34;102317.97;;;-4.90;83.61
52032;BME280;38044;45.148;39.604;2023-01-25T05:27:00;102406.03;;;-4.22;84.03
52032;BME280;38044;45.148;39.604;2023-01-25T05:29:34;102414.75;;;-4.04;84.02
52032;BME280;38044;45.148;39.604;2023-01-25T05:32:02;102374.22;;;-4.19;83.88
52032;BME280;38044;45.148;39.604;2023-01-25T05:34:28;102370.59;;;-4.18;83.81
52032;BME280;38044;45.148;39.604;2023-01-25T05:36:54;102290.41;;;-4.48;83.69
52032;BME280;38044;45.148;39.604;2023-01-25T05:39:21;102356.06;;;-3.95;83.96
52032;BME280;38044;45.148;39.604;2023-01-25T05:41:46;102391.47;;;-3.63;83.70
52032;BME280;38044;45.148;39.604;2023-01-25T05:44:13;102279.91;;;-4.31;83.19
52032;BME280;38044;45.148;39.604;2023-01-25T05:46:38;102364.13;;;-3.70;83.54
52032;BME280;38044;45.148;39.604;2023-01-25T05:49:04;102407.81;;;-3.33;83.79
52032;BME280;38044;45.148;39.604;2023-01-25T05:51:30;102367.72;;;-3.27;83.70
52032;BME280;38044;45.148;39.604;2023-01-25T05:53:56;102352.56;;;-3.33;83.14
52032;BME280;38044;45.148;39.604;2023-01-25T05:56:23;102378.31;;;-3.19;83.01
52032;BME280;38044;45.148;39.604;2023-01-25T05:58:53;102305.75;;;-3.56;83.09
52032;BME280;38044;45.148;39.604;2023-01-25T06:01:20;102361.56;;;-3.10;83.17
52032;BME280;38044;45.148;39.604;2023-01-25T06:03:46;102298.91;;;-3.49;83.15
52032;BME280;38044;45.148;39.604;2023-01-25T06:06:12;102285.78;;;-3.41;83.14
52032;BME280;38044;45.148;39.604;2023-01-25T06:08:38;102371.97;;;-2.74;83.07
52032;BME280;38044;45.148;39.604;2023-01-25T06:11:09;102379.56;;;-2.63;83.11
52032;BME280;38044;45.148;39.604;2023-01-25T06:13:35;102366.69;;;-2.74;82.61
52032;BME280;38044;45.148;39.604;2023-01-25T06:16:00;102279.66;;;-3.23;82.17
52032;BME280;38044;45.148;39.604;2023-01-25T06:18:29;102387.66;;;-2.56;82.28
52032;BME280;38044;45.148;39.604;2023-01-25T06:20:58;102404.16;;;-2.38;82.42
52032;BME280;38044;45.148;39.604;2023-01-25T06:23:28;102385.88;;;-2.47;82.52
52032;BME280;38044;45.148;39.604;2023-01-25T06:26:02;102397.78;;;-2.27;82.11
52032;BME280;38044;45.148;39.604;2023-01-25T06:28:29;102404.03;;;-2.28;82.45
52032;BME280;38044;45.148;39.604;2023-01-25T06:31:02;102367.59;;;-2.49;82.52
52032;BME280;38044;45.148;39.604;2023-01-25T06:33:28;102350.34;;;-2.35;82.76
52032;BME280;38044;45.148;39.604;2023-01-25T06:35:59;102372.63;;;-2.05;82.62
52032;BME280;38044;45.148;39.604;2023-01-25T06:38:24;102381.72;;;-1.99;82.27
52032;BME280;38044;45.148;39.604;2023-01-25T06:40:50;102387.97;;;-1.84;82.42
52032;BME280;38044;45.148;39.604;2023-01-25T06:43:16;102348.41;;;-1.92;82.33
52032;BME280;38044;45.148;39.604;2023-01-25T06:45:42;102291.94;;;-2.22;82.11
52032;BME280;38044;45.148;39.604;2023-01-25T06:48:07;102230.66;;;-2.57;81.80
52032;BME280;38044;45.148;39.604;2023-01-25T06:50:33;102356.81;;;-1.81;81.88
52032;BME280;38044;45.148;39.604;2023-01-25T06:52:59;102376.09;;;-1.55;81.94
52032;BME280;38044;45.148;39.604;2023-01-25T06:55:25;102252.06;;;-2.28;81.59
52032;BME280;38044;45.148;39.604;2023-01-25T06:57:51;102346.75;;;-1.52;81.58
52032;BME280;38044;45.148;39.604;2023-01-25T07:00:17;102385.31;;;-1.35;81.24
52032;BME280;38044;45.148;39.604;2023-01-25T07:02:43;102358.94;;;-1.35;81.35
52032;BME280;38044;45.148;39.604;2023-01-25T07:05:09;102354.44;;;-1.18;81.18
52032;BME280;38044;45.148;39.604;2023-01-25T07:07:34;102362.63;;;-0.97;80.51
52032;BME280;38044;45.148;39.604;2023-01-25T07:10:00;102261.66;;;-1.46;79.86
52032;BME280;38044;45.148;39.604;2023-01-25T07:12:29;102314.63;;;-1.00;79.76
52032;BME280;38044;45.148;39.604;2023-01-25T07:14:55;102298.53;;;-1.14;79.43
52032;BME280;38044;45.148;39.604;2023-01-25T07:17:21;102284.19;;;-1.19;79.38
52032;BME280;38044;45.148;39.604;2023-01-25T07:19:47;102346.53;;;-0.71;79.50
52032;BME280;38044;45.148;39.604;2023-01-25T07:22:13;102281.19;;;-1.08;79.37
52032;BME280;38044;45.148;39.604;2023-01-25T07:24:39;102377.81;;;-0.51;79.26
52032;BME280;38044;45.148;39.604;2023-01-25T07:27:04;102324.53;;;-0.94;78.87
52032;BME280;38044;45.148;39.604;2023-01-25T07:29:30;102366.34;;;-0.75;79.29
52032;BME280;38044;45.148;39.604;2023-01-25T07:31:56;102277.75;;;-1.17;79.43
52032;BME280;38044;45.148;39.604;2023-01-25T07:34:22;102347.44;;;-0.55;79.52
52032;BME280;38044;45.148;39.604;2023-01-25T07:36:47;102403.66;;;-0.07;79.04
52032;BME280;38044;45.148;39.604;2023-01-25T07:39:13;102412.97;;;0.12;78.74
52032;BME280;38044;45.148;39.604;2023-01-25T07:41:39;102395.31;;;0.27;78.32
52032;BME280;38044;45.148;39.604;2023-01-25T07:44:05;102365.75;;;0.24;77.54
52032;BME280;38044;45.148;39.604;2023-01-25T07:46:31;102391.47;;;0.53;77.01
52032;BME280;38044;45.148;39.604;2023-01-25T07:48:57;102366.53;;;0.47;76.70
52032;BME280;38044;45.148;39.604;2023-01-25T07:51:26;102372.88;;;0.76;76.28
52032;BME280;38044;45.148;39.604;2023-01-25T07:54:00;102426.06;;;1.19;76.24
52032;BME280;38044;45.148;39.604;2023-01-25T07:56:33;102406.31;;;1.36;76.00
52032;BME280;38044;45.148;39.604;2023-01-25T07:59:00;102364.56;;;1.08;74.74
52032;BME280;38044;45.148;39.604;2023-01-25T08:01:30;102374.19;;;1.09;74.70
52032;BME280;38044;45.148;39.604;2023-01-25T08:04:00;102377.34;;;1.20;74.73
52032;BME280;38044;45.148;39.604;2023-01-25T08:06:28;102396.97;;;1.40;74.86
52032;BME280;38044;45.148;39.604;2023-01-25T08:09:12;102400.72;;;1.61;74.28
52032;BME280;38044;45.148;39.604;2023-01-25T08:11:40;102369.19;;;1.51;73.78
52032;BME280;38044;45.148;39.604;2023-01-25T08:14:06;102365.34;;;1.53;73.31
52032;BME280;38044;45.148;39.604;2023-01-25T08:16:32;102259.53;;;1.16;72.89
52032;BME280;38044;45.148;39.604;2023-01-25T08:19:00;102300.47;;;1.71;72.37
52032;BME280;38044;45.148;39.604;2023-01-25T08:21:27;102390.69;;;2.42;71.87
52032;BME280;38044;45.148;39.604;2023-01-25T08:23:58;102361.59;;;2.55;71.51
52032;BME280;38044;45.148;39.604;2023-01-25T08:26:25;102377.75;;;2.88;71.19
52032;BME280;38044;45.148;39.604;2023-01-25T08:28:51;102248.53;;;2.33;70.45
52032;BME280;38044;45.148;39.604;2023-01-25T08:31:22;102383.03;;;3.71;69.80
52032;BME280;38044;45.148;39.604;2023-01-25T08:33:49;102282.78;;;3.92;68.51
52032;BME280;38044;45.148;39.604;2023-01-25T08:36:16;102269.19;;;4.66;67.47
52032;BME280;38044;45.148;39.604;2023-01-25T08:38:46;102359.53;;;6.41;64.78
52032;BME280;38044;45.148;39.604;2023-01-25T08:41:17;102373.31;;;7.85;61.72
52032;BME280;38044;45.148;39.604;2023-01-25T08:43:44;102343.13;;;8.44;59.87
52032;BME280;38044;45.148;39.604;2023-01-25T08:46:12;102372.56;;;9.26;58.39
52032;BME280;38044;45.148;39.604;2023-01-25T08:48:38;102368.84;;;10.01;56.85
52032;BME280;38044;45.148;39.604;2023-01-25T08:51:07;102376.72;;;10.53;55.31
52032;BME280;38044;45.148;39.604;2023-01-25T08:53:34;102367.50;;;10.88;54.59
52032;BME280;38044;45.148;39.604;2023-01-25T08:56:07;102357.09;;;11.14;53.40
52032;BME280;38044;45.148;39.604;2023-01-25T08:58:38;102349.44;;;10.67;53.18
52032;BME280;38044;45.148;39.604;2023-01-25T09:01:05;102336.19;;;10.99;52.99
52032;BME280;38044;45.148;39.604;2023-01-25T09:03:42;102357.22;;;11.78;51.51
52032;BME280;38044;45.148;39.604;2023-01-25T09:06:09;102344.72;;;11.67;51.10
52032;BME280;38044;45.148;39.604;2023-01-25T09:08:35;102357.88;;;11.63;50.89
52032;BME280;38044;45.148;39.604;2023-01-25T09:11:07;102366.91;;;11.74;50.19
52032;BME280;38044;45.148;39.604;2023-01-25T09:13:33;102257.13;;;10.83;50.38
52032;BME280;38044;45.148;39.604;2023-01-25T09:16:05;102239.38;;;10.82;49.57
52032;BME280;38044;45.148;39.604;2023-01-25T09:18:31;102351.31;;;11.81;50.86
52032;BME280;38044;45.148;39.604;2023-01-25T09:20:58;102335.03;;;11.66;49.69
52032;BME280;38044;45.148;39.604;2023-01-25T09:23:24;102247.56;;;11.46;49.15
52032;BME280;38044;45.148;39.604;2023-01-25T09:26:00;102351.94;;;12.58;48.83
52032;BME280;38044;45.148;39.604;2023-01-25T09:28:28;102323.69;;;11.91;47.79
52032;BME280;38044;45.148;39.604;2023-01-25T09:31:04;102270.44;;;11.71;48.46
52032;BME280;38044;45.148;39.604;2023-01-25T09:33:34;102345.28;;;11.69;48.86
52032;BME280;38044;45.148;39.604;2023-01-25T09:36:01;102331.31;;;11.45;48.75
52032;BME280;38044;45.148;39.604;2023-01-25T09:38:27;102299.31;;;10.99;48.79
52032;BME280;38044;45.148;39.604;2023-01-25T09:52:07;102329.16;;;12.01;47.33
52032;BME280;38044;45.148;39.604;2023-01-25T09:54:39;102199.28;;;10.58;48.46
52032;BME280;38044;45.148;39.604;2023-01-25T09:57:30;102314.19;;;11.56;48.64
52032;BME280;38044;45.148;39.604;2023-01-25T09:59:59;102290.06;;;10.90;48.88
52032;BME280;38044;45.148;39.604;2023-01-25T10:02:43;102233.34;;;10.31;48.98
52032;BME280;38044;45.148;39.604;2023-01-25T10:05:15;102192.47;;;10.12;49.50
52032;BME280;38044;45.148;39.604;2023-01-25T10:10:41;102212.66;;;10.14;49.92
52032;BME280;38044;45.148;39.604;2023-01-25T10:13:16;102185.22;;;9.74;50.17
52032;BME280;38044;45.148;39.604;2023-01-25T10:15:49;102296.63;;;10.22;50.47
52032;BME280;38044;45.148;39.604;2023-01-25T10:20:52;102282.72;;;9.91;51.44
52032;BME280;38044;45.148;39.604;2023-01-25T10:23:59;102288.50;;;10.33;51.29
52032;BME280;38044;45.148;39.604;2023-01-25T10:26:33;102274.41;;;9.92;51.19
52032;BME280;38044;45.148;39.604;2023-01-25T10:29:32;102284.50;;;10.19;50.82
52032;BME280;38044;45.148;39.604;2023-01-25T10:32:25;102172.28;;;9.37;51.67
52032;BME280;38044;45.148;39.604;2023-01-25T10:34:53;102207.19;;;9.08;51.89
52032;BME280;38044;45.148;39.604;2023-01-25T10:37:23;102271.00;;;9.35;52.34
52032;BME280;38044;45.148;39.604;2023-01-25T10:40:22;102273.56;;;9.75;52.57
52032;BME280;38044;45.148;39.604;2023-01-25T10:43:01;102257.31;;;9.82;52.64
52032;BME280;38044;45.148;39.604;2023-01-25T10:45:33;102232.03;;;9.32;52.41
52032;BME280;38044;45.148;39.604;2023-01-25T10:48:06;102239.00;;;9.16;53.39
52032;BME280;38044;45.148;39.604;2023-01-25T10:53:28;102258.16;;;8.79;54.22
52032;BME280;38044;45.148;39.604;2023-01-25T10:58:47;102236.63;;;8.04;55.76
52032;BME280;38044;45.148;39.604;2023-01-25T11:01:34;102259.25;;;8.08;55.57
52032;BME280;38044;45.148;39.604;2023-01-25T11:04:01;102156.22;;;7.10;56.16
52032;BME280;38044;45.148;39.604;2023-01-25T11:06:30;102165.56;;;7.19;56.20
52032;BME280;38044;45.148;39.604;2023-01-25T11:08:56;102123.59;;;6.89;55.74
52032;BME280;38044;45.148;39.604;2023-01-25T11:11:23;102144.97;;;6.89;56.23
52032;BME280;38044;45.148;39.604;2023-01-25T11:13:50;102187.13;;;7.06;56.46
52032;BME280;38044;45.148;39.604;2023-01-25T11:16:37;102252.28;;;7.41;56.79
52032;BME280;38044;45.148;39.604;2023-01-25T11:19:25;102162.81;;;6.95;56.59
52032;BME280;38044;45.148;39.604;2023-01-25T11:21:53;102228.56;;;7.15;56.71
52032;BME280;38044;45.148;39.604;2023-01-25T11:24:20;102248.84;;;7.34;56.68
52032;BME280;38044;45.148;39.604;2023-01-25T11:26:45;102241.13;;;7.14;57.12
52032;BME280;38044;45.148;39.604;2023-01-25T11:29:16;102225.38;;;7.06;57.08
52032;BME280;38044;45.148;39.604;2023-01-25T11:31:50;102156.03;;;6.63;57.28
52032;BME280;38044;45.148;39.604;2023-01-25T11:34:24;102246.69;;;7.13;57.31
52032;BME280;38044;45.148;39.604;2023-01-25T11:39:58;102252.06;;;7.13;58.17
52032;BME280;38044;45.148;39.604;2023-01-25T11:51:17;102201.09;;;6.59;58.53
52032;BME280;38044;45.148;39.604;2023-01-25T11:56:48;102249.44;;;6.76;58.24
52032;BME280;38044;45.148;39.604;2023-01-25T12:02:27;102242.81;;;6.60;58.76
52032;BME280;38044;45.148;39.604;2023-01-25T12:05:17;102244.50;;;6.54;59.41
52032;BME280;38044;45.148;39.604;2023-01-25T12:19:00;102242.75;;;6.30;59.69
52032;BME280;38044;45.148;39.604;2023-01-25T12:24:20;102231.72;;;6.01;60.19
52032;BME280;38044;45.148;39.604;2023-01-25T12:26:59;102230.88;;;6.01;60.60
52032;BME280;38044;45.148;39.604;2023-01-25T12:29:34;102223.78;;;5.88;60.61
52032;BME280;38044;45.148;39.604;2023-01-25T12:32:11;102210.94;;;5.78;60.91
52032;BME280;38044;45.148;39.604;2023-01-25T12:34:46;102204.91;;;5.58;60.86
52032;BME280;38044;45.148;39.604;2023-01-25T12:37:20;102235.44;;;5.69;61.17
52032;BME280;38044;45.148;39.604;2023-01-25T12:42:30;102233.19;;;5.65;61.55
52032;BME280;38044;45.148;39.604;2023-01-25T12:45:33;102164.75;;;5.28;61.48
52032;BME280;38044;45.148;39.604;2023-01-25T12:48:17;102183.09;;;5.42;61.19
52032;BME280;38044;45.148;39.604;2023-01-25T12:50:57;102121.84;;;5.04;61.35
52032;BME280;38044;45.148;39.604;2023-01-25T12:53:26;102136.78;;;5.05;61.36
52032;BME280;38044;45.148;39.604;2023-01-25T12:55:55;102128.25;;;4.96;61.53
52032;BME280;38044;45.148;39.604;2023-01-25T12:58:43;102224.88;;;5.55;61.67
52032;BME280;38044;45.148;39.604;2023-01-25T13:01:26;102195.81;;;5.40;61.98
52032;BME280;38044;45.148;39.604;2023-01-25T13:09:12;102223.59;;;5.58;61.84
52032;BME280;38044;45.148;39.604;2023-01-25T13:11:43;102231.56;;;5.64;61.31
52032;BME280;38044;45.148;39.604;2023-01-25T13:16:46;102226.41;;;5.70;60.31
52032;BME280;38044;45.148;39.604;2023-01-25T13:19:20;102109.81;;;5.20;59.58
52032;BME280;38044;45.148;39.604;2023-01-25T13:21:48;102224.59;;;5.95;58.99
52032;BME280;38044;45.148;39.604;2023-01-25T13:24:15;102208.19;;;5.85;59.04
52032;BME280;38044;45.148;39.604;2023-01-25T13:26:48;102230.66;;;6.02;58.65
52032;BME280;38044;45.148;39.604;2023-01-25T13:29:42;102112.59;;;5.32;58.57
52032;BME280;38044;45.148;39.604;2023-01-25T13:37:19;102216.81;;;5.87;58.65
52032;BME280;38044;45.148;39.604;2023-01-25T13:40:04;102189.78;;;5.77;58.90
52032;BME280;38044;45.148;39.604;2023-01-25T13:42:34;102207.88;;;5.75;58.83
52032;BME280;38044;45.148;39.604;2023-01-25T13:45:11;102179.34;;;5.50;59.02
52032;BME280;38044;45.148;39.604;2023-01-25T13:47:39;102133.44;;;5.16;59.17
52032;BME280;38044;45.148;39.604;2023-01-25T13:50:24;102205.34;;;5.55;59.35
52032;BME280;38044;45.148;39.604;2023-01-25T13:53:02;102148.81;;;5.14;59.43
52032;BME280;38044;45.148;39.604;2023-01-25T13:55:36;102198.78;;;5.26;60.00
52032;BME280;38044;45.148;39.604;2023-01-25T13:58:14;102177.63;;;4.99;60.50
52032;BME280;38044;45.148;39.604;2023-01-25T14:01:00;102198.16;;;4.92;61.49
52032;BME280;38044;45.148;39.604;2023-01-25T14:03:56;102200.72;;;4.73;61.85
52032;BME280;38044;45.148;39.604;2023-01-25T14:06:26;102185.50;;;4.36;62.22
52032;BME280;38044;45.148;39.604;2023-01-25T14:08:55;102097.22;;;3.67;62.58
52032;BME280;38044;45.148;39.604;2023-01-25T14:11:31;102190.84;;;4.22;63.13
52032;BME280;38044;45.148;39.604;2023-01-25T14:14:00;102198.06;;;4.02;63.13
52032;BME280;38044;45.148;39.604;2023-01-25T14:16:28;102082.31;;;3.13;63.82
52032;BME280;38044;45.148;39.604;2023-01-25T14:18:55;102199.53;;;3.58;64.11